Terminal Aerodrome Forecast
Issued by NWS

Home | Current Version | Previous Version | Graphics & Text | Print | Product List | Glossary On
Versions: 1 2 3 4 5 6 7 8 9 10 11 12 13 14 15 16 17 18 19
000
FTUS43 KOAX 281929 CCA
TAFCDR
TAF COR
KCDR 281929Z 2819/2918 28011KT P6SM VCTS SCT050CB BKN100
      TEMPO 2821/2901 VRB15G30KT 3SM -TSRA BKN030CB OVC100
     FM290600 33006KT P6SM VCSH SCT015 BKN025 OVC100=

USA.gov is the U.S. government's official web portal to all federal, state and local government web resources and services.